createdAt,value
2022-09-16T00:00:59.342Z,101091.47
2022-09-16T00:03:27.199Z,101095.66
2022-09-16T00:05:55.366Z,101095.94
2022-09-16T00:08:24.523Z,101091.53
2022-09-16T00:10:52.694Z,101093.03
2022-09-16T00:13:20.435Z,101102.44
2022-09-16T00:15:50.983Z,101099.09
2022-09-16T00:18:20.296Z,101097.56
2022-09-16T00:20:49.752Z,101102.00
2022-09-16T00:23:17.984Z,101103.19
2022-09-16T00:25:52.491Z,101103.81
2022-09-16T00:28:21.614Z,101093.59
2022-09-16T00:30:49.883Z,101098.97
2022-09-16T00:33:18.645Z,101106.38
2022-09-16T00:35:46.854Z,101105.53
2022-09-16T00:38:14.967Z,101098.34
2022-09-16T00:40:48.054Z,101098.16
2022-09-16T00:43:17.426Z,101090.84
2022-09-16T00:45:47.726Z,101092.03
2022-09-16T00:48:20.225Z,101094.06
2022-09-16T00:50:51.685Z,101097.31
2022-09-16T00:53:24.064Z,101091.28
2022-09-16T00:55:55.966Z,101091.63
2022-09-16T00:58:28.894Z,101096.66
2022-09-16T01:00:56.930Z,101102.25
2022-09-16T01:03:26.207Z,101091.53
2022-09-16T01:05:54.188Z,101094.72
2022-09-16T01:08:21.974Z,101092.63
2022-09-16T01:10:49.666Z,101094.22
2022-09-16T01:13:18.907Z,101098.66
2022-09-16T01:15:56.579Z,101100.22
2022-09-16T01:18:30.458Z,101102.34
2022-09-16T01:21:35.289Z,101102.50
2022-09-16T01:24:30.912Z,101098.19
2022-09-16T01:27:17.292Z,101098.84
2022-09-16T01:30:16.008Z,101102.09
2022-09-16T01:32:58.682Z,101107.59
2022-09-16T01:35:36.672Z,101105.41
2022-09-16T01:38:13.810Z,101111.94
2022-09-16T01:40:53.920Z,101108.19
2022-09-16T01:43:25.814Z,101115.16
2022-09-16T01:45:57.520Z,101104.53
2022-09-16T01:48:35.286Z,101104.44
2022-09-16T01:51:09.701Z,101100.75
2022-09-16T01:53:40.345Z,101102.88
2022-09-16T01:56:12.110Z,101099.59
2022-09-16T01:58:44.525Z,101098.84
2022-09-16T02:01:17.680Z,101095.88
2022-09-16T02:03:53.401Z,101100.47
2022-09-16T02:06:24.773Z,101108.47
2022-09-16T02:08:57.862Z,101105.03
2022-09-16T02:11:26.545Z,101106.47
2022-09-16T02:13:58.896Z,101100.22
2022-09-16T02:16:31.431Z,101096.97
2022-09-16T02:19:06.656Z,101095.72
2022-09-16T02:21:36.945Z,101098.13
2022-09-16T02:24:11.054Z,101110.19
2022-09-16T02:26:47.457Z,101108.38
2022-09-16T02:29:20.530Z,101111.84
2022-09-16T02:31:53.610Z,101095.22
2022-09-16T02:34:29.720Z,101101.75
2022-09-16T02:37:03.501Z,101099.44
2022-09-16T02:39:36.194Z,101094.06
2022-09-16T02:42:04.552Z,101089.97
2022-09-16T02:44:34.234Z,101088.53
2022-09-16T02:47:08.562Z,101087.75
2022-09-16T02:49:42.128Z,101090.66
2022-09-16T02:52:17.278Z,101098.41
2022-09-16T02:54:51.176Z,101095.34
2022-09-16T02:57:19.182Z,101097.06
2022-09-16T02:59:47.150Z,101084.81
2022-09-16T03:02:15.310Z,101093.72
2022-09-16T03:04:44.455Z,101098.34
2022-09-16T03:07:13.706Z,101094.31
2022-09-16T03:09:44.933Z,101088.56
2022-09-16T03:12:22.512Z,101093.28
2022-09-16T03:15:19.528Z,101091.19
2022-09-16T03:18:25.862Z,101088.06
2022-09-16T03:21:01.195Z,101080.94
2022-09-16T03:23:44.591Z,101084.13
2022-09-16T03:26:19.827Z,101090.09
2022-09-16T03:28:56.421Z,101089.66
2022-09-16T03:31:30.079Z,101092.31
2022-09-16T03:34:06.357Z,101087.38
2022-09-16T03:36:41.299Z,101077.78
2022-09-16T03:39:11.825Z,101082.84
2022-09-16T03:41:40.113Z,101089.97
2022-09-16T03:44:07.805Z,101094.88
2022-09-16T03:46:35.939Z,101095.09
2022-09-16T03:49:04.193Z,101094.31
2022-09-16T03:51:31.921Z,101096.50
2022-09-16T03:54:01.091Z,101097.72
2022-09-16T03:56:28.785Z,101095.31
2022-09-16T03:58:56.530Z,101096.16
2022-09-16T04:01:24.300Z,101090.69
2022-09-16T04:03:52.330Z,101094.59
2022-09-16T04:06:20.128Z,101097.34
2022-09-16T04:08:50.519Z,101099.41
2022-09-16T04:11:19.591Z,101107.72
2022-09-16T04:13:47.355Z,101106.25
2022-09-16T04:16:21.098Z,101106.06
2022-09-16T04:18:49.733Z,101106.09
2022-09-16T04:21:18.318Z,101108.22
2022-09-16T04:23:46.079Z,101104.47
2022-09-16T04:26:13.757Z,101105.97
2022-09-16T04:28:42.835Z,101110.88
2022-09-16T04:31:12.877Z,101098.41
2022-09-16T04:33:40.937Z,101107.81
2022-09-16T04:36:12.143Z,101110.81
2022-09-16T04:38:40.507Z,101114.78
2022-09-16T04:41:10.146Z,101115.84
2022-09-16T04:43:38.275Z,101118.28
2022-09-16T04:46:08.040Z,101117.69
2022-09-16T04:48:36.538Z,101121.84
2022-09-16T04:51:06.709Z,101127.00
2022-09-16T04:53:34.650Z,101125.09
2022-09-16T04:56:07.704Z,101122.47
2022-09-16T04:58:35.974Z,101123.25
2022-09-16T05:01:12.671Z,101119.63
2022-09-16T05:03:41.404Z,101123.81
2022-09-16T05:06:11.221Z,101119.75
2022-09-16T05:08:39.382Z,101127.84
2022-09-16T05:11:08.583Z,101132.84
2022-09-16T05:13:36.793Z,101128.25
2022-09-16T05:16:06.705Z,101130.16
2022-09-16T05:18:37.134Z,101131.03
2022-09-16T05:21:07.412Z,101136.13
2022-09-16T05:23:35.454Z,101144.38
2022-09-16T05:26:05.177Z,101147.25
2022-09-16T05:28:33.352Z,101146.97
2022-09-16T05:31:15.051Z,101145.13
2022-09-16T05:33:46.798Z,101148.31
2022-09-16T05:36:16.726Z,101146.09
2022-09-16T05:38:59.077Z,101147.16
2022-09-16T05:41:32.758Z,101153.84
2022-09-16T05:44:01.494Z,101156.44
2022-09-16T05:46:29.994Z,101155.13
2022-09-16T05:48:59.369Z,101155.88
2022-09-16T05:51:27.091Z,101163.28
2022-09-16T05:53:56.013Z,101168.41
2022-09-16T05:56:25.728Z,101151.91
2022-09-16T05:58:54.716Z,101161.31
2022-09-16T06:01:24.450Z,101166.78
2022-09-16T06:03:54.897Z,101174.31
2022-09-16T06:06:26.046Z,101171.22
2022-09-16T06:08:55.664Z,101177.78
2022-09-16T06:11:24.234Z,101174.88
2022-09-16T06:13:56.452Z,101180.75
2022-09-16T06:16:25.774Z,101175.53
2022-09-16T06:18:53.869Z,101187.78
2022-09-16T06:21:22.876Z,101188.16
2022-09-16T06:23:53.270Z,101186.25
2022-09-16T06:26:24.245Z,101188.81
2022-09-16T06:28:53.254Z,101187.47
2022-09-16T06:31:23.270Z,101185.44
2022-09-16T06:33:51.348Z,101180.81
2022-09-16T06:36:20.830Z,101190.91
2022-09-16T06:38:49.670Z,101183.25
2022-09-16T06:41:20.331Z,101195.63
2022-09-16T06:43:48.844Z,101187.53
2022-09-16T06:46:18.648Z,101189.66
2022-09-16T06:48:48.047Z,101195.81
2022-09-16T06:51:18.519Z,101192.44
2022-09-16T06:53:47.776Z,101203.09
2022-09-16T06:56:17.446Z,101194.38
2022-09-16T06:58:49.230Z,101203.69
2022-09-16T07:01:19.194Z,101202.72
2022-09-16T07:03:49.043Z,101195.25
2022-09-16T07:06:17.765Z,101205.25
2022-09-16T07:08:46.326Z,101205.38
2022-09-16T07:11:15.967Z,101201.84
2022-09-16T07:13:44.638Z,101192.47
2022-09-16T07:16:15.697Z,101194.41
2022-09-16T07:18:43.938Z,101204.34
2022-09-16T07:21:14.342Z,101207.63
2022-09-16T07:23:43.481Z,101202.50
2022-09-16T07:26:12.534Z,101209.16
2022-09-16T07:28:41.126Z,101214.41
2022-09-16T07:31:10.673Z,101211.59
2022-09-16T07:33:41.587Z,101214.97
2022-09-16T07:36:11.215Z,101218.72
2022-09-16T07:38:39.364Z,101212.69
2022-09-16T07:41:08.194Z,101225.66
2022-09-16T07:43:36.320Z,101221.19
2022-09-16T07:46:04.557Z,101228.03
2022-09-16T07:48:35.145Z,101225.34
2022-09-16T07:51:07.321Z,101231.88
2022-09-16T07:53:36.014Z,101234.19
2022-09-16T07:56:04.641Z,101228.03
2022-09-16T07:58:32.590Z,101234.81
2022-09-16T08:01:04.555Z,101236.38
2022-09-16T08:03:32.870Z,101247.00
2022-09-16T08:06:01.629Z,101245.41
2022-09-16T08:08:31.021Z,101252.09
2022-09-16T08:11:00.350Z,101253.59
2022-09-16T08:13:29.606Z,101257.03
2022-09-16T08:16:03.425Z,101256.63
2022-09-16T08:18:31.541Z,101257.81
2022-09-16T08:21:01.284Z,101262.78
2022-09-16T08:23:31.166Z,101266.69
2022-09-16T08:25:59.522Z,101261.13
2022-09-16T08:28:39.775Z,101270.69
2022-09-16T08:31:17.281Z,101279.38
2022-09-16T08:33:45.909Z,101280.19
2022-09-16T08:36:17.016Z,101284.03
2022-09-16T08:38:46.661Z,101292.38
2022-09-16T08:41:32.034Z,101286.72
2022-09-16T08:44:10.919Z,101289.22
2022-09-16T08:46:47.269Z,101290.56
2022-09-16T08:49:22.591Z,101292.38
2022-09-16T08:51:50.694Z,101292.94
2022-09-16T08:54:28.466Z,101298.41
2022-09-16T08:57:04.754Z,101291.75
2022-09-16T08:59:37.790Z,101293.63
2022-09-16T09:02:26.654Z,101296.66
2022-09-16T09:04:54.923Z,101308.50
2022-09-16T09:07:30.917Z,101295.47
2022-09-16T09:10:12.234Z,101308.06
2022-09-16T09:12:46.750Z,101309.63
2022-09-16T09:15:30.453Z,101305.50
2022-09-16T09:18:13.939Z,101302.84
2022-09-16T09:20:50.610Z,101298.56
2022-09-16T09:23:38.622Z,101294.66
2022-09-16T09:26:13.661Z,101302.22
2022-09-16T09:29:05.085Z,101296.59
2022-09-16T09:31:43.167Z,101301.91
2022-09-16T09:34:24.723Z,101299.41
2022-09-16T09:37:18.241Z,101307.81
2022-09-16T09:39:57.641Z,101307.97
2022-09-16T09:42:30.790Z,101312.63
2022-09-16T09:45:04.708Z,101316.63
2022-09-16T09:47:37.959Z,101322.50
2022-09-16T09:50:14.734Z,101312.47
2022-09-16T09:52:46.806Z,101317.34
2022-09-16T09:55:17.544Z,101309.09
2022-09-16T09:58:07.061Z,101311.94
2022-09-16T10:00:34.797Z,101322.06
2022-09-16T10:03:06.373Z,101323.16
2022-09-16T10:05:34.460Z,101318.81
2022-09-16T10:08:13.124Z,101328.75
2022-09-16T10:10:50.257Z,101318.28
2022-09-16T10:13:20.475Z,101326.97
2022-09-16T10:15:53.280Z,101326.44
2022-09-16T10:18:27.227Z,101320.84
2022-09-16T10:21:02.167Z,101336.13
2022-09-16T10:23:30.548Z,101323.56
2022-09-16T10:26:23.671Z,101324.00
2022-09-16T10:29:01.923Z,101326.13
2022-09-16T10:31:37.665Z,101335.66
2022-09-16T10:34:15.133Z,101331.38
2022-09-16T10:36:42.801Z,101340.84
2022-09-16T10:39:24.398Z,101329.28
2022-09-16T10:41:52.141Z,101331.72
2022-09-16T10:44:26.142Z,101338.03
2022-09-16T10:46:56.633Z,101335.59
2022-09-16T10:49:30.673Z,101329.88
2022-09-16T10:52:09.261Z,101335.28
2022-09-16T10:54:36.973Z,101343.44
2022-09-16T10:57:04.712Z,101331.91
2022-09-16T10:59:33.797Z,101332.66
2022-09-16T11:02:10.239Z,101326.13
2022-09-16T11:04:50.888Z,101329.72
2022-09-16T11:07:28.529Z,101323.25
2022-09-16T11:10:03.117Z,101326.63
2022-09-16T11:12:46.194Z,101328.69
2022-09-16T11:15:25.879Z,101325.56
2022-09-16T11:18:15.288Z,101325.63
2022-09-16T11:20:58.171Z,101338.72
2022-09-16T11:23:39.189Z,101332.41
2022-09-16T11:26:16.567Z,101323.53
2022-09-16T11:29:17.011Z,101321.56
2022-09-16T11:31:55.206Z,101320.09
2022-09-16T11:34:33.478Z,101311.97
2022-09-16T11:37:13.541Z,101327.38
2022-09-16T11:40:02.137Z,101321.41
2022-09-16T11:42:36.100Z,101331.84
2022-09-16T11:45:21.412Z,101322.72
2022-09-16T11:48:07.185Z,101321.78
2022-09-16T11:50:45.798Z,101324.50
2022-09-16T11:53:32.856Z,101324.81
2022-09-16T11:56:05.466Z,101317.19
2022-09-16T11:58:39.056Z,101323.56
2022-09-16T12:01:33.297Z,101328.66
2022-09-16T12:04:09.332Z,101314.59
2022-09-16T12:06:43.147Z,101313.69
2022-09-16T12:09:15.110Z,101305.56
2022-09-16T12:11:46.601Z,101308.50
2022-09-16T12:14:19.769Z,101323.59
2022-09-16T12:16:49.371Z,101309.03
2022-09-16T12:19:23.764Z,101314.69
2022-09-16T12:21:57.936Z,101312.63
2022-09-16T12:24:33.918Z,101317.84
2022-09-16T12:27:07.070Z,101311.09
2022-09-16T12:29:39.495Z,101328.94
2022-09-16T12:32:12.606Z,101321.75
2022-09-16T12:34:45.277Z,101318.13
2022-09-16T12:37:24.899Z,101327.44
2022-09-16T12:39:53.903Z,101325.25
2022-09-16T12:42:58.037Z,101322.28
2022-09-16T12:45:52.054Z,101334.59
2022-09-16T12:48:51.356Z,101335.47
2022-09-16T12:51:37.662Z,101339.03
2022-09-16T12:54:40.928Z,101328.69
2022-09-16T12:57:31.509Z,101335.94
2022-09-16T13:00:21.501Z,101326.00
2022-09-16T13:02:53.167Z,101332.31
2022-09-16T13:05:33.040Z,101336.00
2022-09-16T13:08:06.662Z,101333.22
2022-09-16T13:10:54.922Z,101340.25
2022-09-16T13:13:32.394Z,101326.81
2022-09-16T13:16:02.017Z,101330.88
2022-09-16T13:18:41.961Z,101345.41
2022-09-16T13:21:22.751Z,101339.16
2022-09-16T13:24:00.109Z,101335.53
2022-09-16T13:26:39.596Z,101321.09
2022-09-16T13:29:25.934Z,101332.59
2022-09-16T13:31:53.811Z,101334.31
2022-09-16T13:34:22.040Z,101320.28
2022-09-16T13:36:50.074Z,101326.63
2022-09-16T13:39:31.293Z,101328.13
2022-09-16T13:42:11.481Z,101324.13
2022-09-16T13:44:43.189Z,101332.13
2022-09-16T13:47:17.016Z,101326.44
2022-09-16T13:49:49.859Z,101317.56
2022-09-16T13:52:21.922Z,101316.31
2022-09-16T13:55:10.084Z,101322.28
2022-09-16T13:57:52.806Z,101319.66
2022-09-16T14:00:22.934Z,101309.88
2022-09-16T14:03:18.327Z,101319.25
2022-09-16T14:06:05.791Z,101318.31
2022-09-16T14:08:42.614Z,101317.63
2022-09-16T14:11:19.329Z,101306.25
2022-09-16T14:13:51.593Z,101316.84
2022-09-16T14:16:24.056Z,101313.25
2022-09-16T14:19:00.620Z,101309.66
2022-09-16T14:21:28.342Z,101299.16
2022-09-16T14:23:56.135Z,101300.59
2022-09-16T14:26:25.622Z,101306.03
2022-09-16T14:29:04.017Z,101307.47
2022-09-16T14:31:33.667Z,101303.09
2022-09-16T14:34:06.668Z,101308.75
2022-09-16T14:36:38.792Z,101312.19
2022-09-16T14:39:12.973Z,101293.88
2022-09-16T14:41:53.646Z,101295.66
2022-09-16T14:44:27.605Z,101302.81
2022-09-16T14:47:07.461Z,101296.53
2022-09-16T14:49:38.989Z,101299.72
2022-09-16T14:52:17.278Z,101311.91
2022-09-16T14:54:45.612Z,101314.84
2022-09-16T14:57:20.569Z,101316.00
2022-09-16T14:59:48.758Z,101315.53
2022-09-16T15:02:20.542Z,101311.34
2022-09-16T15:04:53.766Z,101301.72
2022-09-16T15:07:23.282Z,101304.75
2022-09-16T15:09:55.553Z,101309.50
2022-09-16T15:12:29.457Z,101305.81
2022-09-16T15:14:57.868Z,101307.97
2022-09-16T15:17:28.966Z,101303.91
2022-09-16T15:19:59.835Z,101303.56
2022-09-16T15:22:28.622Z,101310.09
2022-09-16T15:24:59.363Z,101305.63
2022-09-16T15:27:32.225Z,101306.56
2022-09-16T15:30:05.461Z,101305.00
2022-09-16T15:32:33.318Z,101305.13
2022-09-16T15:35:11.151Z,101316.06
2022-09-16T15:37:39.027Z,101308.00
2022-09-16T15:40:21.460Z,101315.44
2022-09-16T15:43:03.450Z,101309.16
2022-09-16T15:45:31.365Z,101312.25
2022-09-16T15:48:02.413Z,101316.81
2022-09-16T15:50:39.389Z,101307.91
2022-09-16T15:53:11.294Z,101311.47
2022-09-16T15:55:44.130Z,101312.00
2022-09-16T15:58:16.992Z,101317.59
2022-09-16T16:01:03.871Z,101310.16
2022-09-16T16:03:36.441Z,101308.13
2022-09-16T16:06:05.099Z,101313.06
2022-09-16T16:08:42.493Z,101314.75
2022-09-16T16:11:12.238Z,101301.38
2022-09-16T16:13:41.816Z,101311.03
2022-09-16T16:16:10.235Z,101312.47
2022-09-16T16:18:39.341Z,101318.59
2022-09-16T16:21:08.827Z,101319.28
2022-09-16T16:23:37.542Z,101323.72
2022-09-16T16:26:06.368Z,101320.47
2022-09-16T16:28:34.561Z,101317.41
2022-09-16T16:31:11.520Z,101327.94
2022-09-16T16:33:43.961Z,101323.94
2022-09-16T16:36:12.805Z,101327.06
2022-09-16T16:38:40.613Z,101328.59
2022-09-16T16:41:09.166Z,101329.50
2022-09-16T16:43:36.937Z,101326.03
2022-09-16T16:46:05.146Z,101329.72
2022-09-16T16:48:34.230Z,101326.41
2022-09-16T16:51:04.652Z,101327.63
2022-09-16T16:53:33.266Z,101336.63
2022-09-16T16:56:05.653Z,101331.34
2022-09-16T16:58:35.949Z,101338.59
2022-09-16T17:01:10.392Z,101354.88
2022-09-16T17:03:39.918Z,101357.69
2022-09-16T17:06:08.442Z,101354.25
2022-09-16T17:08:36.681Z,101351.31
2022-09-16T17:11:10.075Z,101353.81
2022-09-16T17:13:38.218Z,101354.03
2022-09-16T17:16:06.710Z,101359.19
2022-09-16T17:18:34.836Z,101358.22
2022-09-16T17:21:05.224Z,101366.84
2022-09-16T17:23:33.334Z,101359.41
2022-09-16T17:26:01.670Z,101360.06
2022-09-16T17:28:29.766Z,101363.72
2022-09-16T17:30:57.677Z,101365.09
2022-09-16T17:33:26.206Z,101370.28
2022-09-16T17:36:01.872Z,101372.84
2022-09-16T17:38:31.420Z,101373.41
2022-09-16T17:41:04.053Z,101379.22
2022-09-16T17:43:32.889Z,101378.56
2022-09-16T17:46:01.064Z,101381.22
2022-09-16T17:48:29.764Z,101377.53
2022-09-16T17:50:58.228Z,101389.91
2022-09-16T17:53:26.383Z,101391.25
2022-09-16T17:56:02.989Z,101395.28
2022-09-16T17:58:31.252Z,101393.72
2022-09-16T18:01:05.993Z,101393.84
2022-09-16T18:03:34.242Z,101398.22
2022-09-16T18:06:07.418Z,101411.78
2022-09-16T18:08:35.353Z,101413.63
2022-09-16T18:11:05.466Z,101406.66
2022-09-16T18:13:34.071Z,101410.78
2022-09-16T18:16:07.063Z,101403.34
2022-09-16T18:18:36.615Z,101399.19
2022-09-16T18:21:05.909Z,101406.31
2022-09-16T18:23:34.097Z,101403.25
2022-09-16T18:26:06.877Z,101404.78
2022-09-16T18:28:58.049Z,101407.31
2022-09-16T18:31:25.125Z,101412.31
2022-09-16T18:33:53.682Z,101414.53
2022-09-16T18:36:25.102Z,101422.78
2022-09-16T18:38:54.168Z,101421.09
2022-09-16T18:41:25.326Z,101416.84
2022-09-16T18:43:55.474Z,101423.25
2022-09-16T18:46:26.712Z,101425.50
2022-09-16T18:48:54.842Z,101424.81
2022-09-16T18:51:24.256Z,101427.63
2022-09-16T18:53:53.805Z,101432.91
2022-09-16T18:56:24.974Z,101434.34
2022-09-16T18:59:19.973Z,101436.56
2022-09-16T19:01:43.611Z,101440.97
2022-09-16T19:04:13.321Z,101441.25
2022-09-16T19:06:43.582Z,101441.19
2022-09-16T19:09:13.474Z,101441.19
2022-09-16T19:11:42.937Z,101447.41
2022-09-16T19:14:13.678Z,101448.88
2022-09-16T19:16:42.726Z,101453.09
2022-09-16T19:19:12.318Z,101450.19
2022-09-16T19:21:40.868Z,101452.56
2022-09-16T19:24:13.951Z,101461.53
2022-09-16T19:26:44.438Z,101455.03
2022-09-16T19:29:13.868Z,101468.09
2022-09-16T19:31:43.317Z,101468.34
2022-09-16T19:34:11.452Z,101468.63
2022-09-16T19:36:40.482Z,101469.59
2022-09-16T19:39:09.322Z,101473.31
2022-09-16T19:41:40.002Z,101478.94
2022-09-16T19:44:12.217Z,101480.09
2022-09-16T19:46:42.514Z,101485.25
2022-09-16T19:49:14.706Z,101488.00
2022-09-16T19:51:42.965Z,101485.38
2022-09-16T19:54:10.718Z,101487.44
2022-09-16T19:56:38.550Z,101496.25
2022-09-16T19:59:06.472Z,101490.44
2022-09-16T20:01:36.973Z,101496.44
2022-09-16T20:04:07.012Z,101500.84
2022-09-16T20:06:37.096Z,101500.28
2022-09-16T20:09:06.854Z,101510.00
2022-09-16T20:11:37.139Z,101504.69
2022-09-16T20:14:06.518Z,101502.81
2022-09-16T20:16:38.736Z,101503.94
2022-09-16T20:19:08.752Z,101521.13
2022-09-16T20:21:37.754Z,101516.78
2022-09-16T20:24:07.807Z,101516.94
2022-09-16T20:26:36.725Z,101522.34
2022-09-16T20:29:05.442Z,101524.44
2022-09-16T20:31:37.213Z,101528.41
2022-09-16T20:34:05.886Z,101531.00
2022-09-16T20:36:38.088Z,101529.97
2022-09-16T20:39:06.605Z,101535.25
2022-09-16T20:41:37.489Z,101533.34
2022-09-16T20:44:06.261Z,101545.34
2022-09-16T20:46:36.870Z,101537.31
2022-09-16T20:49:09.371Z,101542.09
2022-09-16T20:51:37.722Z,101542.88
2022-09-16T20:54:08.449Z,101549.22
2022-09-16T20:56:39.099Z,101550.09
2022-09-16T20:59:08.150Z,101544.53
2022-09-16T21:01:38.866Z,101553.09
2022-09-16T21:04:08.735Z,101554.34
2022-09-16T21:06:37.269Z,101553.69
2022-09-16T21:09:07.482Z,101559.06
2022-09-16T21:11:35.627Z,101558.41
2022-09-16T21:14:06.359Z,101563.84
2022-09-16T21:16:36.029Z,101572.69
2022-09-16T21:19:09.188Z,101572.19
2022-09-16T21:21:38.846Z,101562.41
2022-09-16T21:24:08.594Z,101566.53
2022-09-16T21:26:38.345Z,101569.69
2022-09-16T21:29:09.809Z,101573.88
2022-09-16T21:31:38.890Z,101575.53
2022-09-16T21:34:12.469Z,101573.97
2022-09-16T21:36:40.328Z,101572.28
2022-09-16T21:39:08.448Z,101574.91
2022-09-16T21:41:36.463Z,101569.78
2022-09-16T21:44:05.233Z,101575.88
2022-09-16T21:46:39.475Z,101576.50
2022-09-16T21:49:14.421Z,101576.19
2022-09-16T21:51:42.113Z,101561.19
2022-09-16T21:54:11.013Z,101574.25
2022-09-16T21:56:40.005Z,101572.00
2022-09-16T21:59:08.717Z,101579.91
2022-09-16T22:01:38.203Z,101581.56
2022-09-16T22:04:11.593Z,101581.56
2022-09-16T22:06:39.356Z,101585.34
2022-09-16T22:09:09.297Z,101583.47
2022-09-16T22:11:39.458Z,101581.22
2022-09-16T22:14:07.705Z,101592.59
2022-09-16T22:16:37.844Z,101582.03
2022-09-16T22:19:07.801Z,101584.66
2022-09-16T22:21:40.002Z,101583.19
2022-09-16T22:24:08.544Z,101587.34
2022-09-16T22:26:37.039Z,101592.53
2022-09-16T22:29:06.168Z,101588.53
2022-09-16T22:31:35.148Z,101592.75
2022-09-16T22:34:03.353Z,101594.19
2022-09-16T22:36:32.498Z,101588.41
2022-09-16T22:39:06.217Z,101589.84
2022-09-16T22:41:34.960Z,101590.72
2022-09-16T22:44:03.465Z,101589.75
2022-09-16T22:46:33.617Z,101595.78
2022-09-16T22:49:01.962Z,101592.91
2022-09-16T22:51:29.962Z,101599.19
2022-09-16T22:53:57.794Z,101590.41
2022-09-16T22:56:29.326Z,101603.53
2022-09-16T22:58:58.038Z,101604.19
2022-09-16T23:01:27.481Z,101599.31
2022-09-16T23:03:57.364Z,101603.66
2022-09-16T23:06:26.570Z,101610.94
2022-09-16T23:08:54.747Z,101611.75
2022-09-16T23:11:24.647Z,101613.63
2022-09-16T23:13:54.745Z,101610.03
2022-09-16T23:16:24.473Z,101615.72
2022-09-16T23:18:52.203Z,101618.69
2022-09-16T23:21:22.878Z,101606.88
2022-09-16T23:23:53.049Z,101623.19
2022-09-16T23:26:22.966Z,101616.47
2022-09-16T23:28:54.337Z,101620.22
2022-09-16T23:31:24.345Z,101617.22
2022-09-16T23:33:52.482Z,101622.63
2022-09-16T23:36:21.198Z,101617.03
2022-09-16T23:38:49.333Z,101614.84
2022-09-16T23:41:19.726Z,101616.06
2022-09-16T23:43:48.858Z,101624.72
2022-09-16T23:46:21.117Z,101621.69
2022-09-16T23:48:51.061Z,101626.06
2022-09-16T23:51:22.605Z,101631.44
2022-09-16T23:53:54.016Z,101626.69
2022-09-16T23:56:22.244Z,101622.41
2022-09-16T23:58:50.410Z,101624.81
